createdAt,value
2023-04-19T00:00:39.487Z,13.01
2023-04-19T00:03:31.733Z,13.02
2023-04-19T00:06:24.680Z,13.02
2023-04-19T00:09:16.646Z,12.99
2023-04-19T00:12:09.001Z,12.95
2023-04-19T00:15:00.920Z,12.88
2023-04-19T00:17:52.883Z,12.82
2023-04-19T00:20:45.511Z,12.76
2023-04-19T00:23:37.553Z,12.72
2023-04-19T00:26:29.525Z,12.66
2023-04-19T00:29:21.496Z,12.61
2023-04-19T00:32:13.443Z,12.56
2023-04-19T00:35:05.571Z,12.51
2023-04-19T00:37:57.548Z,12.51
2023-04-19T00:40:49.564Z,12.54
2023-04-19T00:43:41.579Z,12.54
2023-04-19T00:46:33.708Z,12.55
2023-04-19T00:49:26.586Z,12.57
2023-04-19T00:52:18.526Z,12.56
2023-04-19T00:55:11.206Z,12.57
2023-04-19T00:58:03.647Z,12.57
2023-04-19T01:00:55.638Z,12.55
2023-04-19T01:03:48.491Z,12.53
2023-04-19T01:06:41.920Z,12.51
2023-04-19T01:09:34.820Z,12.43
2023-04-19T01:12:26.888Z,12.39
2023-04-19T01:15:18.889Z,12.36
2023-04-19T01:18:11.320Z,12.30
2023-04-19T01:21:03.302Z,12.24
2023-04-19T01:23:55.347Z,12.18
2023-04-19T01:26:47.299Z,12.08
2023-04-19T01:29:47.622Z,12.02
2023-04-19T01:32:39.665Z,12.01
2023-04-19T01:35:31.711Z,12.06
2023-04-19T01:38:23.733Z,12.08
2023-04-19T01:41:15.946Z,12.08
2023-04-19T01:44:08.064Z,12.11
2023-04-19T01:47:00.034Z,12.11
2023-04-19T01:49:52.036Z,12.14
2023-04-19T01:52:44.004Z,12.15
2023-04-19T01:55:36.009Z,12.13
2023-04-19T01:58:27.942Z,12.09
2023-04-19T02:01:20.014Z,12.06
2023-04-19T02:04:13.124Z,12.02
2023-04-19T02:07:05.239Z,11.99
2023-04-19T02:09:59.546Z,11.94
2023-04-19T02:12:49.990Z,11.89
2023-04-19T02:15:41.986Z,11.85
2023-04-19T02:18:35.899Z,11.82
2023-04-19T02:21:27.848Z,11.78
2023-04-19T02:24:19.916Z,11.77
2023-04-19T02:27:11.865Z,11.76
2023-04-19T02:29:46.721Z,11.81
2023-04-19T02:32:38.811Z,11.79
2023-04-19T02:35:30.894Z,11.81
2023-04-19T02:38:22.894Z,11.84
2023-04-19T02:41:14.887Z,11.87
2023-04-19T02:44:07.280Z,11.87
2023-04-19T02:46:59.222Z,11.90
2023-04-19T02:49:51.138Z,11.92
2023-04-19T02:52:43.122Z,11.91
2023-04-19T02:55:35.099Z,11.90
2023-04-19T02:58:27.885Z,11.84
2023-04-19T03:01:19.903Z,11.79
2023-04-19T03:04:12.637Z,11.75
2023-04-19T03:07:04.725Z,11.72
2023-04-19T03:09:56.676Z,11.66
2023-04-19T03:12:48.635Z,11.61
2023-04-19T03:15:40.622Z,11.58
2023-04-19T03:18:32.639Z,11.60
2023-04-19T03:21:27.301Z,11.67
2023-04-19T03:24:21.215Z,11.69
2023-04-19T03:27:13.292Z,11.69
2023-04-19T03:30:05.752Z,11.68
2023-04-19T03:32:58.586Z,11.67
2023-04-19T03:35:51.380Z,11.68
2023-04-19T03:38:44.405Z,11.65
2023-04-19T03:41:36.496Z,11.63
2023-04-19T03:44:28.481Z,11.64
2023-04-19T03:47:20.503Z,11.62
2023-04-19T03:50:13.176Z,11.61
2023-04-19T03:53:06.213Z,11.57
2023-04-19T03:55:58.205Z,11.53
2023-04-19T03:58:51.543Z,11.46
2023-04-19T04:01:43.609Z,11.42
2023-04-19T04:04:36.148Z,11.38
2023-04-19T04:07:28.342Z,11.41
2023-04-19T04:10:20.468Z,11.39
2023-04-19T04:13:12.703Z,11.38
2023-04-19T04:16:04.923Z,11.37
2023-04-19T04:18:57.100Z,11.36
2023-04-19T04:21:49.804Z,11.35
2023-04-19T04:24:43.021Z,11.36
2023-04-19T04:27:35.048Z,11.37
2023-04-19T04:30:28.794Z,11.36
2023-04-19T04:33:20.905Z,11.32
2023-04-19T04:36:13.566Z,11.30
2023-04-19T04:39:06.385Z,11.28
2023-04-19T04:41:59.587Z,11.27
2023-04-19T04:44:52.239Z,11.25
2023-04-19T04:47:46.263Z,11.23
2023-04-19T04:50:38.322Z,11.22
2023-04-19T04:53:13.137Z,11.30
2023-04-19T04:56:05.361Z,11.32
2023-04-19T04:58:49.622Z,11.34
2023-04-19T05:01:41.934Z,11.39
2023-04-19T05:04:34.048Z,11.41
2023-04-19T05:07:26.076Z,11.41
2023-04-19T05:10:18.228Z,11.43
2023-04-19T05:13:10.488Z,11.55
2023-04-19T05:16:02.548Z,11.89
2023-04-19T05:18:54.604Z,12.28
2023-04-19T05:21:46.655Z,12.64
2023-04-19T05:24:40.098Z,12.75
2023-04-19T05:27:33.872Z,12.75
2023-04-19T05:30:25.843Z,12.71
2023-04-19T05:33:17.827Z,12.60
2023-04-19T05:36:10.697Z,12.51
2023-04-19T05:38:52.673Z,12.39
2023-04-19T05:41:44.723Z,12.24
2023-04-19T05:44:36.723Z,12.06
2023-04-19T05:47:28.776Z,11.97
2023-04-19T05:50:21.452Z,11.86
2023-04-19T05:53:13.406Z,11.72
2023-04-19T05:56:05.843Z,11.61
2023-04-19T05:58:58.324Z,11.67
2023-04-19T06:01:50.408Z,11.66
2023-04-19T06:04:42.649Z,11.66
2023-04-19T06:07:40.214Z,11.64
2023-04-19T06:10:49.066Z,11.61
2023-04-19T06:13:27.912Z,11.55
2023-04-19T06:16:20.135Z,11.47
2023-04-19T06:19:12.142Z,11.42
2023-04-19T06:22:04.101Z,11.35
2023-04-19T06:24:56.139Z,11.32
2023-04-19T06:27:48.095Z,11.26
2023-04-19T06:30:40.110Z,11.23
2023-04-19T06:33:32.268Z,11.21
2023-04-19T06:36:24.242Z,11.16
2023-04-19T06:39:17.298Z,11.13
2023-04-19T06:42:09.378Z,11.03
2023-04-19T06:45:01.475Z,10.97
2023-04-19T06:47:53.482Z,10.90
2023-04-19T06:50:45.434Z,10.86
2023-04-19T06:53:37.972Z,10.88
2023-04-19T06:56:47.061Z,10.94
2023-04-19T06:59:39.900Z,10.88
2023-04-19T07:02:32.266Z,10.87
2023-04-19T07:05:24.662Z,10.86
2023-04-19T07:08:19.797Z,10.87
2023-04-19T07:11:11.777Z,10.87
2023-04-19T07:14:03.966Z,10.83
2023-04-19T07:16:56.138Z,10.78
2023-04-19T07:19:51.352Z,10.76
2023-04-19T07:22:43.363Z,10.74
2023-04-19T07:25:35.374Z,10.71
2023-04-19T07:28:29.502Z,10.69
2023-04-19T07:31:21.645Z,10.64
2023-04-19T07:34:14.028Z,10.64
2023-04-19T07:37:06.397Z,10.65
2023-04-19T07:39:58.334Z,10.64
2023-04-19T07:42:50.497Z,10.64
2023-04-19T07:45:42.783Z,10.63
2023-04-19T07:48:34.517Z,10.63
2023-04-19T07:51:26.566Z,10.67
2023-04-19T07:54:20.185Z,10.77
2023-04-19T07:57:12.313Z,10.80
2023-04-19T08:00:04.953Z,10.83
2023-04-19T08:02:58.130Z,10.89
2023-04-19T08:05:50.661Z,10.93
2023-04-19T08:08:42.800Z,10.97
2023-04-19T08:11:34.969Z,11.01
2023-04-19T08:14:37.522Z,11.05
2023-04-19T08:17:39.153Z,11.03
2023-04-19T08:20:33.591Z,10.99
2023-04-19T08:23:24.141Z,10.93
2023-04-19T08:26:17.906Z,10.83
2023-04-19T08:29:09.904Z,10.78
2023-04-19T08:32:02.558Z,10.76
2023-04-19T08:34:54.643Z,10.76
2023-04-19T08:37:48.070Z,10.81
2023-04-19T08:40:46.715Z,10.88
2023-04-19T08:43:41.216Z,10.94
2023-04-19T08:46:34.015Z,11.01
2023-04-19T08:49:26.143Z,11.09
2023-04-19T08:52:02.662Z,11.18
2023-04-19T08:54:55.852Z,11.32
2023-04-19T08:57:48.533Z,11.51
2023-04-19T09:00:42.362Z,11.67
2023-04-19T09:03:41.155Z,11.80
2023-04-19T09:06:41.154Z,11.91
2023-04-19T09:09:39.211Z,12.05
2023-04-19T09:12:35.572Z,12.16
2023-04-19T09:15:11.946Z,12.24
2023-04-19T09:18:09.810Z,12.30
2023-04-19T09:21:02.181Z,12.31
2023-04-19T09:23:54.222Z,12.31
2023-04-19T09:27:00.564Z,12.23
2023-04-19T09:29:56.991Z,12.07
2023-04-19T09:32:49.896Z,11.92
2023-04-19T09:35:48.195Z,11.79
2023-04-19T09:38:50.787Z,11.74
2023-04-19T09:41:54.452Z,11.74
2023-04-19T09:45:28.570Z,11.78
2023-04-19T09:48:24.010Z,11.83
2023-04-19T09:51:16.171Z,12.03
2023-04-19T09:54:09.263Z,12.31
2023-04-19T09:57:02.657Z,12.61
2023-04-19T09:59:54.783Z,12.82
2023-04-19T10:02:54.359Z,12.83
2023-04-19T10:05:47.380Z,12.77
2023-04-19T10:08:40.403Z,12.68
2023-04-19T10:11:38.801Z,12.57
2023-04-19T10:14:12.097Z,12.48
2023-04-19T10:17:04.733Z,12.35
2023-04-19T10:20:06.672Z,12.27
2023-04-19T10:22:59.022Z,12.19
2023-04-19T10:25:56.289Z,12.15
2023-04-19T10:28:49.994Z,12.14
2023-04-19T10:31:43.448Z,12.14
2023-04-19T10:34:42.142Z,12.10
2023-04-19T10:37:34.386Z,12.03
2023-04-19T10:40:56.607Z,12.01
2023-04-19T10:44:10.457Z,11.96
2023-04-19T10:47:02.792Z,11.94
2023-04-19T10:49:55.372Z,11.86
2023-04-19T10:52:40.889Z,11.78
2023-04-19T10:55:35.769Z,11.73
2023-04-19T10:58:27.795Z,11.72
2023-04-19T11:01:32.669Z,11.70
2023-04-19T11:04:11.092Z,11.71
2023-04-19T11:07:08.084Z,11.76
2023-04-19T11:10:00.209Z,11.81
2023-04-19T11:12:54.246Z,11.82
2023-04-19T11:15:47.004Z,11.80
2023-04-19T11:18:39.052Z,11.75
2023-04-19T11:21:16.160Z,11.67
2023-04-19T11:24:12.139Z,11.61
2023-04-19T11:27:10.672Z,11.55
2023-04-19T11:30:07.534Z,11.49
2023-04-19T11:32:50.411Z,11.46
2023-04-19T11:35:38.856Z,11.43
2023-04-19T11:38:32.067Z,11.46
2023-04-19T11:41:24.046Z,11.43
2023-04-19T11:43:58.888Z,11.45
2023-04-19T11:47:02.545Z,11.49
2023-04-19T11:49:55.533Z,11.49
2023-04-19T11:52:51.813Z,11.44
2023-04-19T11:55:47.209Z,11.43
2023-04-19T11:58:44.560Z,11.41
2023-04-19T12:01:38.157Z,11.35
2023-04-19T12:04:30.408Z,11.28
2023-04-19T12:07:12.931Z,11.26
2023-04-19T12:10:12.179Z,11.25
2023-04-19T12:13:17.164Z,11.21
2023-04-19T12:16:09.922Z,11.05
2023-04-19T12:19:20.380Z,10.91
2023-04-19T12:22:14.329Z,10.76
2023-04-19T12:25:02.697Z,10.66
2023-04-19T12:27:36.871Z,10.58
2023-04-19T12:30:29.215Z,10.51
2023-04-19T12:33:04.158Z,10.49
2023-04-19T12:35:56.225Z,10.47
2023-04-19T12:38:48.336Z,10.47
2023-04-19T12:41:40.427Z,10.47
2023-04-19T12:44:32.405Z,10.46
2023-04-19T12:47:24.569Z,10.51
2023-04-19T12:49:59.759Z,10.55
2023-04-19T12:52:53.678Z,10.60
2023-04-19T12:55:47.540Z,10.61
2023-04-19T12:58:39.778Z,10.62
2023-04-19T13:01:33.055Z,10.66
2023-04-19T13:04:25.459Z,10.67
2023-04-19T13:07:17.613Z,10.65
2023-04-19T13:09:52.250Z,10.63
2023-04-19T13:12:44.491Z,10.63
2023-04-19T13:15:36.589Z,10.61
2023-04-19T13:18:28.650Z,10.60
2023-04-19T13:21:20.748Z,10.58
2023-04-19T13:24:12.718Z,10.56
2023-04-19T13:27:06.697Z,10.54
2023-04-19T13:30:00.900Z,10.54
2023-04-19T13:32:53.145Z,10.50
2023-04-19T13:35:46.050Z,10.50
2023-04-19T13:38:38.063Z,10.47
2023-04-19T13:41:30.526Z,10.44
2023-04-19T13:44:22.464Z,10.43
2023-04-19T13:47:14.403Z,10.46
2023-04-19T13:50:07.292Z,10.56
2023-04-19T13:52:59.324Z,10.58
2023-04-19T13:55:52.098Z,10.58
2023-04-19T13:58:44.074Z,10.60
2023-04-19T14:01:36.717Z,10.62
2023-04-19T14:04:29.103Z,10.62
2023-04-19T14:07:21.228Z,10.62
2023-04-19T14:10:13.855Z,10.61
2023-04-19T14:13:06.295Z,10.59
2023-04-19T14:15:58.271Z,10.55
2023-04-19T14:18:50.332Z,10.47
2023-04-19T14:21:42.445Z,10.42
2023-04-19T14:24:34.519Z,10.35
2023-04-19T14:27:27.372Z,10.33
2023-04-19T14:30:19.889Z,10.34
2023-04-19T14:33:12.183Z,10.30
2023-04-19T14:36:04.392Z,10.27
2023-04-19T14:38:56.418Z,10.27
2023-04-19T14:41:48.390Z,10.26
2023-04-19T14:44:40.686Z,10.30
2023-04-19T14:47:32.715Z,10.30
2023-04-19T14:50:24.772Z,10.33
2023-04-19T14:52:56.566Z,10.35
2023-04-19T14:55:48.555Z,10.36
2023-04-19T14:58:40.572Z,10.39
2023-04-19T15:01:32.642Z,10.40
2023-04-19T15:04:07.659Z,10.38
2023-04-19T15:06:59.786Z,10.36
2023-04-19T15:09:51.853Z,10.30
2023-04-19T15:12:43.930Z,10.27
2023-04-19T15:15:35.948Z,10.21
2023-04-19T15:18:28.083Z,10.17
2023-04-19T15:21:24.377Z,10.11
2023-04-19T15:23:56.495Z,10.05
2023-04-19T15:26:48.447Z,9.99
2023-04-19T15:29:41.248Z,9.96
2023-04-19T15:32:36.559Z,9.96
2023-04-19T15:35:28.658Z,9.97
2023-04-19T15:38:22.208Z,10.01
2023-04-19T15:41:14.437Z,10.02
2023-04-19T15:44:06.599Z,10.02
2023-04-19T15:46:58.644Z,10.03
2023-04-19T15:49:52.659Z,10.05
2023-04-19T15:52:35.798Z,10.06
2023-04-19T15:55:27.825Z,10.07
2023-04-19T15:58:19.917Z,10.06
2023-04-19T16:01:02.570Z,10.05
2023-04-19T16:03:45.413Z,10.04
2023-04-19T16:06:37.606Z,9.96
2023-04-19T16:09:29.685Z,9.92
2023-04-19T16:12:21.668Z,9.88
2023-04-19T16:15:14.119Z,9.86
2023-04-19T16:18:06.390Z,9.90
2023-04-19T16:20:58.429Z,9.90
2023-04-19T16:23:50.448Z,9.92
2023-04-19T16:26:42.476Z,9.95
2023-04-19T16:29:34.755Z,9.96
2023-04-19T16:32:16.880Z,9.97
2023-04-19T16:35:10.037Z,9.94
2023-04-19T16:38:04.413Z,9.89
2023-04-19T16:40:56.468Z,9.86
2023-04-19T16:43:48.752Z,9.84
2023-04-19T16:46:40.772Z,9.82
2023-04-19T16:49:32.829Z,9.79
2023-04-19T16:52:25.304Z,9.73
2023-04-19T16:55:17.608Z,9.71
2023-04-19T16:58:09.776Z,9.71
2023-04-19T17:01:02.654Z,9.76
2023-04-19T17:03:54.829Z,9.76
2023-04-19T17:06:47.062Z,9.78
2023-04-19T17:09:39.033Z,9.81
2023-04-19T17:12:31.004Z,9.79
2023-04-19T17:15:23.069Z,9.77
2023-04-19T17:18:15.127Z,9.80
2023-04-19T17:21:07.516Z,9.78
2023-04-19T17:23:59.533Z,9.77
2023-04-19T17:26:51.667Z,9.75
2023-04-19T17:29:43.637Z,9.73
2023-04-19T17:32:35.948Z,9.69
2023-04-19T17:35:28.080Z,9.64
2023-04-19T17:38:20.062Z,9.60
2023-04-19T17:41:16.267Z,9.59
2023-04-19T17:44:08.400Z,9.66
2023-04-19T17:47:00.673Z,9.67
2023-04-19T17:49:52.727Z,9.68
2023-04-19T17:52:44.874Z,9.72
2023-04-19T17:55:37.017Z,9.75
2023-04-19T17:58:29.085Z,9.78
2023-04-19T18:01:21.102Z,9.78
2023-04-19T18:04:33.260Z,9.77
2023-04-19T18:07:25.369Z,9.73
2023-04-19T18:10:17.396Z,9.70
2023-04-19T18:13:09.442Z,9.69
2023-04-19T18:16:03.425Z,9.66
2023-04-19T18:18:55.935Z,9.62
2023-04-19T18:21:48.085Z,9.59
2023-04-19T18:24:28.821Z,9.61
2023-04-19T18:27:20.800Z,9.68
2023-04-19T18:30:14.211Z,9.70
2023-04-19T18:33:06.509Z,9.73
2023-04-19T18:35:58.857Z,9.77
2023-04-19T18:38:50.883Z,9.78
2023-04-19T18:41:42.891Z,9.78
2023-04-19T18:44:52.038Z,9.78
2023-04-19T18:47:45.491Z,9.78
2023-04-19T18:50:38.984Z,9.77
2023-04-19T18:53:31.555Z,9.72
2023-04-19T18:56:54.253Z,9.67
2023-04-19T18:59:35.679Z,9.65
2023-04-19T19:02:28.238Z,9.62
2023-04-19T19:05:20.695Z,9.58
2023-04-19T19:08:12.743Z,9.55
2023-04-19T19:13:59.612Z,9.50
2023-04-19T19:16:52.947Z,9.55
2023-04-19T19:19:45.464Z,9.54
2023-04-19T19:22:37.605Z,9.57
2023-04-19T19:25:29.625Z,9.60
2023-04-19T19:28:22.475Z,9.61
2023-04-19T19:31:14.625Z,9.63
2023-04-19T19:34:22.654Z,9.62
2023-04-19T19:37:17.113Z,9.56
2023-04-19T19:40:11.409Z,9.52
2023-04-19T19:43:01.953Z,9.49
2023-04-19T19:45:53.957Z,9.43
2023-04-19T19:48:51.980Z,9.39
2023-04-19T19:51:53.197Z,9.36
2023-04-19T19:54:40.398Z,9.30
2023-04-19T19:58:20.547Z,9.30
2023-04-19T20:00:47.970Z,9.37
2023-04-19T20:03:36.089Z,9.38
2023-04-19T20:09:24.295Z,9.45
2023-04-19T20:12:16.324Z,9.49
2023-04-19T20:15:09.944Z,9.50
2023-04-19T20:18:02.087Z,9.49
2023-04-19T20:20:54.484Z,9.45
2023-04-19T20:23:46.910Z,9.41
2023-04-19T20:26:38.910Z,9.39
2023-04-19T20:29:30.889Z,9.41
2023-04-19T20:32:05.972Z,9.40
2023-04-19T20:34:59.328Z,9.40
2023-04-19T20:37:51.864Z,9.36
2023-04-19T20:40:44.119Z,9.29
2023-04-19T20:43:36.398Z,9.26
2023-04-19T20:46:28.714Z,9.20
2023-04-19T20:49:21.355Z,9.18
2023-04-19T20:52:13.393Z,9.13
2023-04-19T20:55:05.675Z,9.13
2023-04-19T20:57:57.673Z,9.17
2023-04-19T21:00:49.732Z,9.24
2023-04-19T21:03:41.843Z,9.26
2023-04-19T21:06:33.979Z,9.29
2023-04-19T21:09:26.005Z,9.29
2023-04-19T21:12:03.238Z,9.25
2023-04-19T21:14:55.171Z,9.22
2023-04-19T21:17:47.357Z,9.17
2023-04-19T21:20:39.437Z,9.12
2023-04-19T21:23:14.234Z,9.07
2023-04-19T21:26:06.256Z,8.99
2023-04-19T21:28:58.201Z,8.97
2023-04-19T21:31:50.291Z,8.96
2023-04-19T21:34:42.512Z,8.97
2023-04-19T21:37:18.467Z,9.02
2023-04-19T21:40:11.707Z,9.03
2023-04-19T21:42:46.208Z,9.07
2023-04-19T21:45:38.300Z,9.10
2023-04-19T21:48:30.329Z,9.15
2023-04-19T21:51:22.648Z,9.18
2023-04-19T21:54:26.482Z,9.20
2023-04-19T21:57:24.594Z,9.22
2023-04-19T22:00:18.208Z,9.26
2023-04-19T22:03:10.342Z,9.26
2023-04-19T22:06:02.607Z,9.24
2023-04-19T22:08:54.572Z,9.23
2023-04-19T22:11:46.688Z,9.17
2023-04-19T22:14:38.983Z,9.13
2023-04-19T22:17:32.215Z,9.09
2023-04-19T22:20:24.708Z,9.12
2023-04-19T22:23:16.698Z,9.20
2023-04-19T22:26:08.833Z,9.21
2023-04-19T22:29:01.383Z,9.26
2023-04-19T22:31:53.371Z,9.32
2023-04-19T22:34:45.623Z,9.34
2023-04-19T22:37:37.705Z,9.37
2023-04-19T22:40:29.999Z,9.40
2023-04-19T22:43:22.596Z,9.41
2023-04-19T22:46:14.717Z,9.41
2023-04-19T22:48:49.873Z,9.39
2023-04-19T22:51:42.412Z,9.37
2023-04-19T22:54:34.461Z,9.33
2023-04-19T22:57:26.473Z,9.26
2023-04-19T23:00:19.287Z,9.23
2023-04-19T23:03:11.322Z,9.25
2023-04-19T23:06:04.114Z,9.33
2023-04-19T23:08:56.270Z,9.36
2023-04-19T23:11:48.883Z,9.40
2023-04-19T23:14:40.905Z,9.44
2023-04-19T23:17:34.474Z,9.44
2023-04-19T23:20:26.586Z,9.46
2023-04-19T23:23:19.801Z,9.47
2023-04-19T23:26:11.945Z,9.46
2023-04-19T23:29:03.945Z,9.46
2023-04-19T23:31:56.132Z,9.44
2023-04-19T23:34:48.318Z,9.40
2023-04-19T23:37:40.987Z,9.40
2023-04-19T23:40:33.086Z,9.38
2023-04-19T23:43:25.014Z,9.35
2023-04-19T23:46:17.423Z,9.32
2023-04-19T23:49:09.757Z,9.38
2023-04-19T23:51:48.843Z,9.39
2023-04-19T23:54:40.932Z,9.39
2023-04-19T23:57:34.410Z,9.43
